createdAt,value
2018-07-20T00:00:16.882Z,993.32
2018-07-20T00:01:16.972Z,993.30
2018-07-20T00:02:17.059Z,993.33
2018-07-20T00:03:17.155Z,993.32
2018-07-20T00:04:17.249Z,993.32
2018-07-20T00:05:17.369Z,993.35
2018-07-20T00:06:17.461Z,993.33
2018-07-20T00:07:17.576Z,993.33
2018-07-20T00:08:17.673Z,993.35
2018-07-20T00:09:17.779Z,993.33
2018-07-20T00:10:17.876Z,993.35
2018-07-20T00:11:17.981Z,993.35
2018-07-20T00:12:18.084Z,993.33
2018-07-20T00:13:18.187Z,993.29
2018-07-20T00:14:18.284Z,993.34
2018-07-20T00:15:18.374Z,993.34
2018-07-20T00:16:18.471Z,993.31
2018-07-20T00:17:18.573Z,993.36
2018-07-20T00:18:18.663Z,993.35
2018-07-20T00:19:18.755Z,993.36
2018-07-20T00:20:18.860Z,993.37
2018-07-20T00:21:18.939Z,993.37
2018-07-20T00:22:19.064Z,993.36
2018-07-20T00:23:19.156Z,993.35
2018-07-20T00:24:19.260Z,993.34
2018-07-20T00:26:52.399Z,993.28
2018-07-20T00:27:52.494Z,993.29
2018-07-20T00:28:52.587Z,993.28
2018-07-20T00:29:52.687Z,993.25
2018-07-20T00:30:52.791Z,993.22
2018-07-20T00:31:52.877Z,993.25
2018-07-20T00:32:52.970Z,993.24
2018-07-20T00:33:53.079Z,993.25
2018-07-20T00:34:53.177Z,993.23
2018-07-20T00:35:53.306Z,993.22
2018-07-20T00:36:53.388Z,993.22
2018-07-20T00:37:53.492Z,993.17
2018-07-20T00:38:53.592Z,993.16
2018-07-20T00:39:53.681Z,993.17
2018-07-20T00:40:53.783Z,993.15
2018-07-20T00:41:53.893Z,993.14
2018-07-20T00:42:53.998Z,993.16
2018-07-20T00:43:54.112Z,993.17
2018-07-20T00:44:54.225Z,993.20
2018-07-20T00:45:54.321Z,993.17
2018-07-20T00:46:54.421Z,993.15
2018-07-20T00:47:54.511Z,993.14
2018-07-20T00:48:54.608Z,993.11
2018-07-20T00:49:54.704Z,993.12
2018-07-20T00:50:54.795Z,993.08
2018-07-20T00:51:54.888Z,993.08
2018-07-20T00:52:54.994Z,993.09
2018-07-20T00:53:55.102Z,993.05
2018-07-20T00:54:55.254Z,993.07
2018-07-20T00:55:55.345Z,993.06
2018-07-20T00:56:55.456Z,993.09
2018-07-20T00:57:55.547Z,993.07
2018-07-20T00:58:55.666Z,993.04
2018-07-20T00:59:55.760Z,993.03
2018-07-20T01:00:55.850Z,992.99
2018-07-20T01:01:55.941Z,992.97
2018-07-20T01:02:56.027Z,992.96
2018-07-20T01:03:56.136Z,992.98
2018-07-20T01:04:56.216Z,993.01
2018-07-20T01:05:56.317Z,992.96
2018-07-20T01:06:56.414Z,992.92
2018-07-20T01:07:56.502Z,992.95
2018-07-20T01:08:56.617Z,992.93
2018-07-20T01:09:56.705Z,992.97
2018-07-20T01:10:56.794Z,992.95
2018-07-20T01:11:56.887Z,992.91
2018-07-20T01:12:56.992Z,992.94
2018-07-20T01:13:57.090Z,992.93
2018-07-20T01:14:57.178Z,992.94
2018-07-20T01:15:57.299Z,992.88
2018-07-20T01:16:57.467Z,992.89
2018-07-20T01:17:57.498Z,992.90
2018-07-20T01:18:57.596Z,992.87
2018-07-20T01:19:57.694Z,992.89
2018-07-20T01:20:57.777Z,992.96
2018-07-20T01:21:57.886Z,992.95
2018-07-20T01:22:57.970Z,992.96
2018-07-20T01:23:58.068Z,992.98
2018-07-20T01:24:58.170Z,992.95
2018-07-20T01:25:58.266Z,992.93
2018-07-20T01:26:58.363Z,992.92
2018-07-20T01:27:58.457Z,992.94
2018-07-20T01:28:58.553Z,992.92
2018-07-20T01:29:58.647Z,992.96
2018-07-20T01:30:58.741Z,992.95
2018-07-20T01:31:58.839Z,992.96
2018-07-20T01:32:58.943Z,992.93
2018-07-20T01:33:59.043Z,992.91
2018-07-20T01:34:59.136Z,992.92
2018-07-20T01:35:59.226Z,992.90
2018-07-20T01:36:59.327Z,992.90
2018-07-20T01:37:59.432Z,992.89
2018-07-20T01:38:59.520Z,992.86
2018-07-20T01:39:59.613Z,992.90
2018-07-20T01:40:59.716Z,992.90
2018-07-20T01:41:59.806Z,992.91
2018-07-20T01:42:59.891Z,992.90
2018-07-20T01:43:59.985Z,992.87
2018-07-20T01:45:00.084Z,992.89
2018-07-20T01:46:00.180Z,992.89
2018-07-20T01:47:00.276Z,992.85
2018-07-20T01:48:00.375Z,992.90
2018-07-20T01:49:00.485Z,992.85
2018-07-20T01:50:00.580Z,992.86
2018-07-20T01:51:00.678Z,992.82
2018-07-20T01:52:00.773Z,992.79
2018-07-20T01:53:00.870Z,992.80
2018-07-20T01:54:00.964Z,992.76
2018-07-20T01:55:01.063Z,992.80
2018-07-20T01:56:01.164Z,992.77
2018-07-20T01:57:01.255Z,992.77
2018-07-20T01:58:01.349Z,992.76
2018-07-20T01:59:01.448Z,992.76
2018-07-20T02:00:01.544Z,992.78
2018-07-20T02:01:01.639Z,992.80
2018-07-20T02:02:01.741Z,992.82
2018-07-20T02:03:01.830Z,992.78
2018-07-20T02:04:01.927Z,992.80
2018-07-20T02:05:02.027Z,992.79
2018-07-20T02:06:02.121Z,992.76
2018-07-20T02:07:02.218Z,992.75
2018-07-20T02:08:02.316Z,992.74
2018-07-20T02:09:02.417Z,992.71
2018-07-20T02:10:02.515Z,992.77
2018-07-20T02:11:02.606Z,992.70
2018-07-20T02:12:02.707Z,992.69
2018-07-20T02:13:02.809Z,992.74
2018-07-20T02:14:02.890Z,992.74
2018-07-20T02:15:02.987Z,992.76
2018-07-20T02:16:03.085Z,992.75
2018-07-20T02:17:03.179Z,992.76
2018-07-20T02:18:03.275Z,992.73
2018-07-20T02:19:03.416Z,992.72
2018-07-20T02:20:03.466Z,992.69
2018-07-20T02:21:03.563Z,992.71
2018-07-20T02:22:03.656Z,992.76
2018-07-20T02:23:03.756Z,992.75
2018-07-20T02:24:03.863Z,992.72
2018-07-20T02:25:03.948Z,992.71
2018-07-20T02:26:04.085Z,992.75
2018-07-20T02:27:04.138Z,992.71
2018-07-20T02:28:04.235Z,992.72
2018-07-20T02:29:04.334Z,992.72
2018-07-20T02:30:04.428Z,992.69
2018-07-20T02:31:04.522Z,992.71
2018-07-20T02:32:04.621Z,992.69
2018-07-20T02:33:04.722Z,992.67
2018-07-20T02:34:04.818Z,992.66
2018-07-20T02:35:04.908Z,992.67
2018-07-20T02:36:05.003Z,992.66
2018-07-20T02:37:05.105Z,992.66
2018-07-20T02:38:05.212Z,992.68
2018-07-20T02:39:05.297Z,992.63
2018-07-20T02:40:05.394Z,992.64
2018-07-20T02:41:05.491Z,992.67
2018-07-20T02:42:05.594Z,992.61
2018-07-20T02:43:05.687Z,992.60
2018-07-20T02:44:05.784Z,992.57
2018-07-20T02:45:05.884Z,992.61
2018-07-20T02:46:05.981Z,992.58
2018-07-20T02:47:06.074Z,992.61
2018-07-20T02:48:06.176Z,992.61
2018-07-20T02:49:06.287Z,992.62
2018-07-20T02:50:06.384Z,992.60
2018-07-20T02:51:06.479Z,992.65
2018-07-20T02:52:06.576Z,992.62
2018-07-20T02:53:06.672Z,992.62
2018-07-20T02:54:06.769Z,992.60
2018-07-20T02:55:06.869Z,992.60
2018-07-20T02:56:06.963Z,992.62
2018-07-20T02:57:07.059Z,992.60
2018-07-20T02:58:07.157Z,992.60
2018-07-20T02:59:07.254Z,992.63
2018-07-20T03:00:07.349Z,992.60
2018-07-20T03:01:07.451Z,992.58
2018-07-20T03:02:07.544Z,992.59
2018-07-20T03:03:07.638Z,992.58
2018-07-20T03:04:07.734Z,992.59
2018-07-20T03:05:07.834Z,992.60
2018-07-20T03:06:07.929Z,992.58
2018-07-20T03:07:08.039Z,992.56
2018-07-20T03:08:08.118Z,992.56
2018-07-20T03:09:08.312Z,992.59
2018-07-20T03:10:08.325Z,992.59
2018-07-20T03:11:08.422Z,992.56
2018-07-20T03:12:08.521Z,992.54
2018-07-20T03:13:08.617Z,992.55
2018-07-20T03:14:08.713Z,992.55
2018-07-20T03:15:08.811Z,992.57
2018-07-20T03:16:08.907Z,992.58
2018-07-20T03:17:09.007Z,992.58
2018-07-20T03:18:09.103Z,992.58
2018-07-20T03:19:09.198Z,992.55
2018-07-20T03:20:09.293Z,992.56
2018-07-20T03:21:09.441Z,992.54
2018-07-20T03:22:09.492Z,992.52
2018-07-20T03:23:09.585Z,992.55
2018-07-20T03:24:09.681Z,992.56
2018-07-20T03:25:09.775Z,992.53
2018-07-20T03:26:09.873Z,992.57
2018-07-20T03:27:09.969Z,992.54
2018-07-20T03:28:10.067Z,992.50
2018-07-20T03:29:10.166Z,992.51
2018-07-20T03:30:10.264Z,992.52
2018-07-20T03:31:10.364Z,992.53
2018-07-20T03:32:10.458Z,992.55
2018-07-20T03:33:10.553Z,992.51
2018-07-20T03:34:10.648Z,992.50
2018-07-20T03:35:10.752Z,992.55
2018-07-20T03:36:10.843Z,992.53
2018-07-20T03:37:10.940Z,992.49
2018-07-20T03:38:11.045Z,992.52
2018-07-20T03:39:11.142Z,992.48
2018-07-20T03:40:11.243Z,992.47
2018-07-20T03:41:11.336Z,992.47
2018-07-20T03:42:11.445Z,992.50
2018-07-20T03:43:11.531Z,992.52
2018-07-20T03:44:11.628Z,992.51
2018-07-20T03:45:11.725Z,992.53
2018-07-20T03:46:11.823Z,992.52
2018-07-20T03:47:11.921Z,992.50
2018-07-20T03:48:12.019Z,992.47
2018-07-20T03:49:12.117Z,992.47
2018-07-20T03:50:12.213Z,992.48
2018-07-20T03:51:12.307Z,992.49
2018-07-20T03:52:12.411Z,992.47
2018-07-20T03:53:12.498Z,992.46
2018-07-20T03:54:12.651Z,992.41
2018-07-20T03:55:12.712Z,992.46
2018-07-20T03:56:12.815Z,992.48
2018-07-20T03:57:12.911Z,992.47
2018-07-20T03:58:13.008Z,992.45
2018-07-20T03:59:13.106Z,992.41
2018-07-20T04:00:13.204Z,992.46
2018-07-20T04:01:13.300Z,992.43
2018-07-20T04:02:13.396Z,992.42
2018-07-20T04:03:13.493Z,992.39
2018-07-20T04:04:13.591Z,992.40
2018-07-20T04:05:13.688Z,992.41
2018-07-20T04:06:13.786Z,992.40
2018-07-20T04:07:13.881Z,992.39
2018-07-20T04:08:13.979Z,992.44
2018-07-20T04:09:14.076Z,992.40
2018-07-20T04:10:14.183Z,992.42
2018-07-20T04:11:14.265Z,992.42
2018-07-20T04:12:14.361Z,992.41
2018-07-20T04:13:14.461Z,992.45
2018-07-20T04:14:14.560Z,992.42
2018-07-20T04:15:14.658Z,992.39
2018-07-20T04:16:14.755Z,992.40
2018-07-20T04:17:14.851Z,992.38
2018-07-20T04:18:14.950Z,992.38
2018-07-20T04:19:15.050Z,992.37
2018-07-20T04:20:15.193Z,992.38
2018-07-20T04:21:15.304Z,992.34
2018-07-20T04:22:15.387Z,992.34
2018-07-20T04:23:15.479Z,992.35
2018-07-20T04:24:15.570Z,992.36
2018-07-20T04:25:15.669Z,992.36
2018-07-20T04:26:15.760Z,992.35
2018-07-20T04:27:15.857Z,992.31
2018-07-20T04:28:15.985Z,992.33
2018-07-20T04:29:16.075Z,992.32
2018-07-20T04:30:16.194Z,992.36
2018-07-20T04:31:16.324Z,992.34
2018-07-20T04:32:16.432Z,992.31
2018-07-20T04:33:16.541Z,992.32
2018-07-20T04:34:16.655Z,992.34
2018-07-20T04:35:16.751Z,992.33
2018-07-20T04:36:16.865Z,992.36
2018-07-20T04:37:16.985Z,992.33
2018-07-20T04:38:17.085Z,992.32
2018-07-20T04:39:17.170Z,992.29
2018-07-20T04:40:17.280Z,992.29
2018-07-20T04:41:17.369Z,992.27
2018-07-20T04:42:17.453Z,992.28
2018-07-20T04:43:17.534Z,992.27
2018-07-20T04:44:17.674Z,992.29
2018-07-20T04:45:17.801Z,992.26
2018-07-20T04:46:17.896Z,992.29
2018-07-20T04:47:17.982Z,992.30
2018-07-20T04:48:18.087Z,992.33
2018-07-20T04:49:18.190Z,992.33
2018-07-20T04:50:18.284Z,992.30
2018-07-20T04:51:18.408Z,992.30
2018-07-20T04:52:18.515Z,992.32
2018-07-20T04:53:18.610Z,992.30
2018-07-20T04:54:18.737Z,992.30
2018-07-20T04:55:18.823Z,992.30
2018-07-20T04:56:18.936Z,992.26
2018-07-20T04:57:19.021Z,992.25
2018-07-20T04:58:19.128Z,992.24
2018-07-20T04:59:19.211Z,992.24
2018-07-20T05:00:19.315Z,992.28
2018-07-20T05:01:19.403Z,992.26
2018-07-20T05:02:19.511Z,992.29
2018-07-20T05:03:19.608Z,992.28
2018-07-20T05:04:19.711Z,992.26
2018-07-20T05:05:19.815Z,992.26
2018-07-20T05:06:19.933Z,992.28
2018-07-20T05:07:19.967Z,992.26
2018-07-20T05:08:20.067Z,992.27
2018-07-20T05:09:20.168Z,992.25
2018-07-20T05:10:20.260Z,992.25
2018-07-20T05:11:20.409Z,992.23
2018-07-20T05:12:20.484Z,992.21
2018-07-20T05:13:20.563Z,992.25
2018-07-20T05:14:20.657Z,992.23
2018-07-20T05:15:20.771Z,992.21
2018-07-20T05:16:20.862Z,992.21
2018-07-20T05:17:20.965Z,992.25
2018-07-20T05:18:21.070Z,992.21
2018-07-20T05:19:21.202Z,992.20
2018-07-20T05:20:21.301Z,992.22
2018-07-20T05:21:21.413Z,992.20
2018-07-20T05:22:21.507Z,992.20
2018-07-20T05:23:21.605Z,992.20
2018-07-20T05:24:21.699Z,992.19
2018-07-20T05:25:21.799Z,992.20
2018-07-20T05:26:21.893Z,992.20
2018-07-20T05:27:22.004Z,992.23
2018-07-20T05:28:22.090Z,992.15
2018-07-20T05:29:22.175Z,992.18
2018-07-20T05:30:22.264Z,992.19
2018-07-20T05:31:22.390Z,992.15
2018-07-20T05:32:22.481Z,992.16
2018-07-20T05:33:22.650Z,992.17
2018-07-20T05:34:22.618Z,992.20
2018-07-20T05:35:22.712Z,992.21
2018-07-20T05:36:22.816Z,992.19
2018-07-20T05:37:22.915Z,992.20
2018-07-20T05:38:23.015Z,992.18
2018-07-20T05:39:23.113Z,992.24
2018-07-20T05:40:23.218Z,992.23
2018-07-20T05:41:23.325Z,992.23
2018-07-20T05:42:23.421Z,992.28
2018-07-20T05:43:23.528Z,992.26
2018-07-20T05:44:23.618Z,992.30
2018-07-20T05:45:23.721Z,992.27
2018-07-20T05:46:23.825Z,992.30
2018-07-20T05:47:23.921Z,992.23
2018-07-20T05:48:24.021Z,992.22
2018-07-20T05:49:24.123Z,992.22
2018-07-20T05:50:24.228Z,992.25
2018-07-20T05:51:24.334Z,992.24
2018-07-20T05:52:24.438Z,992.28
2018-07-20T05:53:24.581Z,992.25
2018-07-20T05:54:24.644Z,992.29
2018-07-20T05:55:24.751Z,992.32
2018-07-20T05:56:24.858Z,992.30
2018-07-20T05:57:24.962Z,992.31
2018-07-20T05:58:25.066Z,992.28
2018-07-20T05:59:25.171Z,992.25
2018-07-20T06:00:25.276Z,992.26
2018-07-20T06:01:25.380Z,992.22
2018-07-20T06:02:25.485Z,992.27
2018-07-20T06:03:25.592Z,992.26
2018-07-20T06:04:25.699Z,992.27
2018-07-20T06:05:25.842Z,992.29
2018-07-20T06:06:25.913Z,992.24
2018-07-20T06:07:26.016Z,992.30
2018-07-20T06:08:26.125Z,992.33
2018-07-20T06:09:26.231Z,992.28
2018-07-20T06:10:26.339Z,992.27
2018-07-20T06:11:26.445Z,992.29
2018-07-20T06:12:26.550Z,992.23
2018-07-20T06:13:26.655Z,992.26
2018-07-20T06:14:26.761Z,992.30
2018-07-20T06:15:26.866Z,992.26
2018-07-20T06:16:26.970Z,992.27
2018-07-20T06:17:27.076Z,992.21
2018-07-20T06:18:27.185Z,992.24
2018-07-20T06:19:27.295Z,992.19
2018-07-20T06:20:27.404Z,992.21
2018-07-20T06:21:27.533Z,992.20
2018-07-20T06:22:27.620Z,992.19
2018-07-20T06:23:27.732Z,992.17
2018-07-20T06:24:27.840Z,992.14
2018-07-20T06:25:27.948Z,992.15
2018-07-20T06:26:28.057Z,992.14
2018-07-20T06:27:28.166Z,992.05
2018-07-20T06:28:28.276Z,992.04
2018-07-20T06:29:28.387Z,992.03
2018-07-20T06:30:28.509Z,992.05
2018-07-20T06:31:28.613Z,992.05
2018-07-20T06:32:28.722Z,992.06
2018-07-20T06:33:28.827Z,992.11
2018-07-20T06:34:28.936Z,992.02
2018-07-20T06:35:29.045Z,992.00
2018-07-20T06:36:29.147Z,991.97
2018-07-20T06:37:29.257Z,992.01
2018-07-20T06:38:29.363Z,992.04
2018-07-20T06:39:29.477Z,991.99
2018-07-20T06:40:29.581Z,992.01
2018-07-20T06:41:29.693Z,992.02
2018-07-20T06:42:29.798Z,991.98
2018-07-20T06:43:29.907Z,991.97
2018-07-20T06:44:30.011Z,991.94
2018-07-20T06:45:30.121Z,991.95
2018-07-20T06:46:30.219Z,991.97
2018-07-20T06:47:30.330Z,991.94
2018-07-20T06:48:30.440Z,991.93
2018-07-20T06:49:30.543Z,991.92
2018-07-20T06:50:30.649Z,991.87
2018-07-20T06:51:30.756Z,991.88
2018-07-20T06:52:30.865Z,991.85
2018-07-20T06:53:30.977Z,991.89
2018-07-20T06:54:31.082Z,991.84
2018-07-20T06:55:31.189Z,991.87
2018-07-20T06:56:31.300Z,991.85
2018-07-20T06:57:31.407Z,991.84
2018-07-20T06:58:31.513Z,991.87
2018-07-20T06:59:31.620Z,991.86
2018-07-20T07:00:31.728Z,991.86
2018-07-20T07:01:31.838Z,991.88
2018-07-20T07:02:31.942Z,991.84
2018-07-20T07:03:32.038Z,991.84
2018-07-20T07:04:32.144Z,991.82
2018-07-20T07:05:32.244Z,991.78
2018-07-20T07:06:32.351Z,991.80
2018-07-20T07:07:32.462Z,991.76
2018-07-20T07:08:32.563Z,991.80
2018-07-20T07:09:32.673Z,991.78
2018-07-20T07:10:32.772Z,991.81
2018-07-20T07:11:32.878Z,991.81
2018-07-20T07:12:32.984Z,991.80
2018-07-20T07:13:33.092Z,991.80
2018-07-20T07:14:33.198Z,991.79
2018-07-20T07:15:33.293Z,991.83
2018-07-20T07:16:33.417Z,991.81
2018-07-20T07:17:33.520Z,991.78
2018-07-20T07:18:33.628Z,991.76
2018-07-20T07:19:33.734Z,991.76
2018-07-20T07:20:33.838Z,991.74
2018-07-20T07:21:33.944Z,991.73
2018-07-20T07:22:34.065Z,991.73
2018-07-20T07:23:34.180Z,991.73
2018-07-20T07:24:34.278Z,991.75
2018-07-20T07:25:34.384Z,991.76
2018-07-20T07:26:34.493Z,991.78
2018-07-20T07:27:34.600Z,991.73
2018-07-20T07:28:34.709Z,991.76
2018-07-20T07:29:34.816Z,991.71
2018-07-20T07:30:34.913Z,991.73
2018-07-20T07:31:35.016Z,991.70
2018-07-20T07:32:35.117Z,991.72
2018-07-20T07:33:35.223Z,991.69
2018-07-20T07:34:35.326Z,991.69
2018-07-20T07:35:35.429Z,991.73
2018-07-20T07:36:35.528Z,991.73
2018-07-20T07:37:35.630Z,991.73
2018-07-20T07:38:35.733Z,991.71
2018-07-20T07:39:35.836Z,991.74
2018-07-20T07:40:35.942Z,991.71
2018-07-20T07:41:36.049Z,991.71
2018-07-20T07:42:36.150Z,991.71
2018-07-20T07:43:36.255Z,991.66
2018-07-20T07:44:36.363Z,991.74
2018-07-20T07:45:36.466Z,991.69
2018-07-20T07:46:36.571Z,991.73
2018-07-20T07:47:36.678Z,991.74
2018-07-20T07:48:36.779Z,991.73
2018-07-20T07:49:36.912Z,991.76
2018-07-20T07:50:37.022Z,991.74
2018-07-20T07:51:37.126Z,991.74
2018-07-20T07:52:37.233Z,991.74
2018-07-20T07:53:37.339Z,991.71
2018-07-20T07:54:37.445Z,991.76
2018-07-20T07:55:37.605Z,991.75
2018-07-20T07:56:37.709Z,991.73
2018-07-20T07:57:37.815Z,991.74
2018-07-20T07:58:37.921Z,991.77
2018-07-20T07:59:38.030Z,991.78
2018-07-20T08:00:38.136Z,991.73
2018-07-20T08:01:38.243Z,991.73
2018-07-20T08:02:38.351Z,991.72
2018-07-20T08:03:38.442Z,991.70
2018-07-20T08:04:38.558Z,991.70
2018-07-20T08:05:38.645Z,991.70
2018-07-20T08:06:38.754Z,991.66
2018-07-20T08:07:38.859Z,991.69
2018-07-20T08:08:38.965Z,991.64
2018-07-20T08:09:39.116Z,991.68
2018-07-20T08:10:39.175Z,991.67
2018-07-20T08:11:39.280Z,991.66
2018-07-20T08:12:39.380Z,991.66
2018-07-20T08:13:39.483Z,991.64
2018-07-20T08:14:39.590Z,991.64
2018-07-20T08:15:39.745Z,991.61
2018-07-20T08:16:39.807Z,991.60
2018-07-20T08:17:39.913Z,991.59
2018-07-20T08:18:40.018Z,991.56
2018-07-20T08:19:40.144Z,991.58
2018-07-20T08:20:40.250Z,991.60
2018-07-20T08:21:40.363Z,991.57
2018-07-20T08:22:40.467Z,991.56
2018-07-20T08:23:40.575Z,991.55
2018-07-20T08:24:40.654Z,991.59
2018-07-20T08:25:41.593Z,991.58
2018-07-20T08:26:40.882Z,991.54
2018-07-20T08:27:40.988Z,991.53
2018-07-20T08:28:41.102Z,991.57
2018-07-20T08:29:41.235Z,991.55
2018-07-20T08:30:41.365Z,991.54
2018-07-20T08:31:41.469Z,991.54
2018-07-20T08:32:41.593Z,991.54
2018-07-20T08:33:41.632Z,991.52
2018-07-20T08:34:41.722Z,991.50
2018-07-20T08:35:41.868Z,991.54
2018-07-20T08:36:41.918Z,991.54
2018-07-20T08:37:42.023Z,991.52
2018-07-20T08:38:42.119Z,991.53
2018-07-20T08:39:42.222Z,991.54
2018-07-20T08:40:42.344Z,991.52
2018-07-20T08:41:42.477Z,991.52
2018-07-20T08:42:43.036Z,991.49
2018-07-20T08:43:42.657Z,991.46
2018-07-20T08:44:42.759Z,991.44
2018-07-20T08:45:42.869Z,991.45
2018-07-20T08:46:42.980Z,991.42
2018-07-20T08:47:43.103Z,991.37
2018-07-20T08:48:43.212Z,991.39
2018-07-20T08:49:43.320Z,991.40
2018-07-20T08:50:43.428Z,991.39
2018-07-20T08:51:43.568Z,991.38
2018-07-20T08:52:43.679Z,991.39
2018-07-20T08:53:43.774Z,991.41
2018-07-20T08:54:43.910Z,991.38
2018-07-20T08:55:44.012Z,991.42
2018-07-20T08:56:44.123Z,991.38
2018-07-20T08:57:44.260Z,991.36
2018-07-20T08:58:44.367Z,991.40
2018-07-20T08:59:44.586Z,991.39
2018-07-20T09:00:44.527Z,991.36
2018-07-20T09:01:44.629Z,991.34
2018-07-20T09:02:44.751Z,991.35
2018-07-20T09:03:44.847Z,991.31
2018-07-20T09:04:44.950Z,991.34
2018-07-20T09:05:45.062Z,991.35
2018-07-20T09:06:45.313Z,991.32
2018-07-20T09:07:45.215Z,991.35
2018-07-20T09:08:45.446Z,991.33
2018-07-20T09:09:45.419Z,991.33
2018-07-20T09:10:45.572Z,991.32
2018-07-20T09:11:45.665Z,991.35
2018-07-20T09:12:45.828Z,991.30
2018-07-20T09:13:46.021Z,991.34
2018-07-20T09:14:46.015Z,991.34
2018-07-20T09:15:46.121Z,991.30
2018-07-20T09:16:46.223Z,991.28
2018-07-20T09:17:46.352Z,991.31
2018-07-20T09:18:46.464Z,991.25
2018-07-20T09:19:46.595Z,991.30
2018-07-20T09:20:46.741Z,991.27
2018-07-20T09:21:46.796Z,991.24
2018-07-20T09:22:46.890Z,991.25
2018-07-20T09:23:47.278Z,991.22
2018-07-20T09:24:47.206Z,991.24
2018-07-20T09:25:47.179Z,991.21
2018-07-20T09:26:47.274Z,991.23
2018-07-20T09:27:47.403Z,991.22
2018-07-20T09:28:47.512Z,991.22
2018-07-20T09:29:47.606Z,991.26
2018-07-20T09:30:47.709Z,991.23
2018-07-20T09:31:47.814Z,991.24
2018-07-20T09:32:47.938Z,991.18
2018-07-20T09:33:48.052Z,991.19
2018-07-20T09:34:48.165Z,991.17
2018-07-20T09:35:48.284Z,991.19
2018-07-20T09:36:48.388Z,991.19
2018-07-20T09:37:48.502Z,991.21
2018-07-20T09:38:48.607Z,991.15
2018-07-20T09:39:48.714Z,991.14
2018-07-20T09:40:48.826Z,991.18
2018-07-20T09:41:48.924Z,991.15
2018-07-20T09:42:49.040Z,991.14
2018-07-20T09:43:49.140Z,991.16
2018-07-20T09:44:49.251Z,991.11
2018-07-20T09:45:49.407Z,991.15
2018-07-20T09:46:49.500Z,991.10
2018-07-20T09:47:49.606Z,991.10
2018-07-20T09:48:49.714Z,991.14
2018-07-20T09:49:49.804Z,991.07
2018-07-20T09:50:49.916Z,991.10
2018-07-20T09:51:50.017Z,991.07
2018-07-20T09:52:50.120Z,991.09
2018-07-20T09:53:50.221Z,991.08
2018-07-20T09:54:50.348Z,991.04
2018-07-20T09:55:50.458Z,991.06
2018-07-20T09:56:50.600Z,991.05
2018-07-20T09:57:50.738Z,991.07
2018-07-20T09:58:50.885Z,991.06
2018-07-20T09:59:51.046Z,990.99
2018-07-20T10:00:51.088Z,990.97
2018-07-20T10:01:51.253Z,990.97
2018-07-20T10:02:51.358Z,990.97
2018-07-20T10:03:51.462Z,990.95
2018-07-20T10:04:51.605Z,990.93
2018-07-20T10:05:51.654Z,990.93
2018-07-20T10:06:51.789Z,990.91
2018-07-20T10:07:51.912Z,990.89
2018-07-20T10:08:52.018Z,990.89
2018-07-20T10:09:52.152Z,990.91
2018-07-20T10:10:52.266Z,990.93
2018-07-20T10:11:52.361Z,990.92
2018-07-20T10:12:52.508Z,990.94
2018-07-20T10:13:52.604Z,990.91
2018-07-20T10:14:52.733Z,990.91
2018-07-20T10:15:52.845Z,990.95
2018-07-20T10:16:52.951Z,990.97
2018-07-20T10:17:53.110Z,990.94
2018-07-20T10:18:53.212Z,990.93
2018-07-20T10:19:53.318Z,990.94
2018-07-20T10:20:53.489Z,990.91
2018-07-20T10:21:53.595Z,990.87
2018-07-20T10:22:53.699Z,990.89
2018-07-20T10:23:53.813Z,990.84
2018-07-20T10:24:53.929Z,990.86
2018-07-20T10:25:54.032Z,990.79
2018-07-20T10:26:54.139Z,990.86
2018-07-20T10:27:54.257Z,990.85
2018-07-20T10:28:54.367Z,990.88
2018-07-20T10:29:54.502Z,990.83
2018-07-20T10:30:54.593Z,990.84
2018-07-20T10:31:54.705Z,990.77
2018-07-20T10:32:54.826Z,990.77
2018-07-20T10:33:54.919Z,990.82
2018-07-20T10:34:55.060Z,990.77
2018-07-20T10:35:55.182Z,990.76
2018-07-20T10:36:55.295Z,990.67
2018-07-20T10:37:55.392Z,990.68
2018-07-20T10:38:55.502Z,990.66
2018-07-20T10:39:55.609Z,990.64
2018-07-20T10:40:55.716Z,990.60
2018-07-20T10:41:55.833Z,990.65
2018-07-20T10:42:55.947Z,990.67
2018-07-20T10:43:56.059Z,990.69
2018-07-20T10:44:56.168Z,990.63
2018-07-20T10:45:56.276Z,990.63
2018-07-20T10:46:56.433Z,990.64
2018-07-20T10:47:56.526Z,990.57
2018-07-20T10:48:56.637Z,990.60
2018-07-20T10:49:56.754Z,990.61
2018-07-20T10:50:56.865Z,990.62
2018-07-20T10:51:56.978Z,990.66
2018-07-20T10:52:57.085Z,990.62
2018-07-20T10:53:57.218Z,990.63
2018-07-20T10:54:57.323Z,990.57
2018-07-20T10:55:57.442Z,990.54
2018-07-20T10:56:57.548Z,990.53
2018-07-20T10:57:57.655Z,990.55
2018-07-20T10:58:57.769Z,990.55
2018-07-20T10:59:57.892Z,990.57
2018-07-20T11:00:57.984Z,990.57
2018-07-20T11:01:58.092Z,990.56
2018-07-20T11:02:58.202Z,990.61
2018-07-20T11:03:58.308Z,990.57
2018-07-20T11:04:58.419Z,990.54
2018-07-20T11:05:58.546Z,990.56
2018-07-20T11:06:58.624Z,990.54
2018-07-20T11:07:58.762Z,990.59
2018-07-20T11:08:58.843Z,990.60
2018-07-20T11:09:58.950Z,990.57
2018-07-20T11:10:59.063Z,990.53
2018-07-20T11:11:59.173Z,990.49
2018-07-20T11:12:59.308Z,990.51
2018-07-20T11:13:59.387Z,990.48
2018-07-20T11:14:59.495Z,990.47
2018-07-20T11:15:59.604Z,990.47
2018-07-20T11:16:59.710Z,990.46
2018-07-20T11:17:59.819Z,990.52
2018-07-20T11:18:59.929Z,990.48
2018-07-20T11:20:00.044Z,990.47
2018-07-20T11:21:00.153Z,990.47
2018-07-20T11:22:00.256Z,990.46
2018-07-20T11:23:00.364Z,990.45
2018-07-20T11:24:00.471Z,990.44
2018-07-20T11:25:00.580Z,990.43
2018-07-20T11:26:00.686Z,990.45
2018-07-20T11:27:00.798Z,990.46
2018-07-20T11:28:00.918Z,990.45
2018-07-20T11:29:01.111Z,990.44
2018-07-20T11:30:01.094Z,990.46
2018-07-20T11:31:01.206Z,990.45
2018-07-20T11:32:01.313Z,990.46
2018-07-20T11:33:01.435Z,990.46
2018-07-20T11:34:01.547Z,990.44
2018-07-20T11:35:01.666Z,990.40
2018-07-20T11:36:01.768Z,990.41
2018-07-20T11:37:01.879Z,990.34
2018-07-20T11:38:01.993Z,990.34
2018-07-20T11:39:02.136Z,990.31
2018-07-20T11:40:02.236Z,990.29
2018-07-20T11:41:02.351Z,990.32
2018-07-20T11:42:02.464Z,990.24
2018-07-20T11:43:02.576Z,990.30
2018-07-20T11:44:02.687Z,990.28
2018-07-20T11:45:02.802Z,990.28
2018-07-20T11:46:02.908Z,990.25
2018-07-20T11:47:03.021Z,990.24
2018-07-20T11:48:03.130Z,990.23
2018-07-20T11:49:03.240Z,990.23
2018-07-20T11:50:03.351Z,990.24
2018-07-20T11:51:03.465Z,990.26
2018-07-20T11:52:03.575Z,990.30
2018-07-20T11:53:03.688Z,990.32
2018-07-20T11:56:35.899Z,990.23
2018-07-20T11:57:36.013Z,990.27
2018-07-20T11:58:36.122Z,990.23
2018-07-20T11:59:36.234Z,990.19
2018-07-20T12:00:36.346Z,990.18
2018-07-20T12:01:36.459Z,990.16
2018-07-20T12:02:36.561Z,990.18
2018-07-20T12:03:36.670Z,990.12
2018-07-20T12:04:36.777Z,990.21
2018-07-20T12:05:36.888Z,990.16
2018-07-20T12:06:36.999Z,990.17
2018-07-20T12:07:37.112Z,990.17
2018-07-20T12:08:37.222Z,990.16
2018-07-20T12:09:37.331Z,990.18
2018-07-20T12:10:37.441Z,990.15
2018-07-20T12:11:37.552Z,990.16
2018-07-20T12:12:37.659Z,990.13
2018-07-20T12:13:37.770Z,990.11
2018-07-20T12:14:37.880Z,990.10
2018-07-20T12:15:37.991Z,990.09
2018-07-20T12:16:38.096Z,990.06
2018-07-20T12:17:38.206Z,990.09
2018-07-20T12:18:38.317Z,990.06
2018-07-20T12:19:38.425Z,990.05
2018-07-20T12:20:38.534Z,990.00
2018-07-20T12:21:38.643Z,989.98
2018-07-20T12:22:38.753Z,990.02
2018-07-20T12:23:38.862Z,989.97
2018-07-20T12:24:38.972Z,989.96
2018-07-20T12:25:39.079Z,989.96
2018-07-20T12:26:39.195Z,989.95
2018-07-20T12:27:39.304Z,989.93
2018-07-20T12:28:39.415Z,989.94
2018-07-20T12:29:39.522Z,989.93
2018-07-20T12:30:39.632Z,989.92
2018-07-20T12:31:39.742Z,989.94
2018-07-20T12:32:39.850Z,989.93
2018-07-20T12:33:39.961Z,989.89